Aeroporto :
LOGIN :

Iscrizione | Disclaimer

   EN    FR    IT 

 










Sommario :    VFR   VFR Marginale   IFR   IFR Intensivo   IFR Molto Intensivo
Visibilità : 
Base nubi : 
>= 8 km
>= 3000ft
5 / 8 km
1000 / 3000 ft
1500m / 5 km
500 / 1000 ft
800 / 1500m
200 / 500 ft
< 800m
< 200 ft
Simboli :   Temporali  Nebbia  Neve Forte  Precipitazioni Forti  Vento > 20 kt
SIGMETs :   Varie  Temporali  Ghiacco  Turbolenza  Onda orograficha  Ceneri Vulcaniche






- Altitudine del aeroporto : 129 ft
- Codice IATA : ZCN


ETHC - Celle

ULTIMO METAR :
  • 121820Z 17006KT 9999 SCT042 06/02 Q1001 BLU+

METARs OBSOLETI :
  • 121750Z 22003KT 9999 SCT030 BKN042 06/03 Q1001 BLU
  • 121720Z 18009KT 9999 -SHRA BKN024 BKN034 07/02 Q1002 WHT FCST CANCEL
  • 121620Z 15006KT 9999 BKN050 SCT080 07/01 Q1001 BLU BLU+ TEMPO BLU

TAF AMD TAF ETHC
Valido dal 12 a 15 ore il 13 a 00 ore UTC


121659Z 1215/1224 16010KT 9999 NSW SCT030 BKN050 BKN140
TEMPO 1215/1222 18010G20KT 8000 -SHRA BKN020 BKN035 BKN090 CANCEL 1730



MetMap, La meteo Aeronautica in un colpo d'occhio ! - Copyright ORBIFLY Dicembre 2007 - Disclaimer

ORBIFLY MET'MAP TEAM :

Programmazione e sviluppo : Alexandra Zaïnal
Concezione e sviluppo : Baudouin d'Aumeries
Co-Programmazione e sviluppo : Marc-Olivier Méhu
Supporto tecnico e logistico : Manuel Goepfert
Aiuto per la traduzione : Arnaldo La Scala

Contatto : metmap@orbifly.com




FONTI E CREDITI :

   NOAA